EYSA/SQQ METAR and TAF weather

Enter ICAO airport designator
Station Type Date Time Source
EYSA METAR 2021/05/07 01:20 UTC NOAA

EYSA 070120Z AUTO 21010KT 9999NDV SCT023 SCT026 03/01 Q1002


Station Type Date Time Source
EYSA Decoded METAR 2021/05/07 01:20 UTC NOAA

Siauliai Intl./Mil., Lithuania (EYSA) 55-53-38N 023-23-42E
May 06, 2021 - 09:20 PM EDT / 2021.05.07 0120 UTC
Wind: from the SSW (210 degrees) at 12 MPH (10 KT):0
Sky conditions: partly cloudy
Temperature: 37 F (3 C)
Dew Point: 33 F (1 C)
Relative Humidity: 86%
Pressure (altimeter): 29.59 in. Hg (1002 hPa)
ob: EYSA 070120Z AUTO 21010KT 9999NDV SCT023 SCT026 03/01 Q1002
cycle: 1

Station Type Date Time Source
EYSA TAF 2021/04/23 06:15 UTC NOAA

TAF TAF EYSA 230501Z 2306/2415 27016KT 9000 BKN010 BKN020
TEMPO 2306/2312 5000 SHRASN BKN005 BKN015CB
TEMPO 2312/2315 33016KT 1500 TSRASN BKN003 BKN015CB

Example: see airport list